sensor_id;sensor_type;location;lat;lon;timestamp;P1;durP1;ratioP1;P2;durP2;ratioP2
38435;SDS011;24220;48.168;14.024;2023-08-07T00:00:32;2.92;;;2.13;;
38435;SDS011;24220;48.168;14.024;2023-08-07T00:03:04;5.70;;;1.80;;
38435;SDS011;24220;48.168;14.024;2023-08-07T00:05:47;1.90;;;1.80;;
38435;SDS011;24220;48.168;14.024;2023-08-07T00:08:15;1.80;;;1.70;;
38435;SDS011;24220;48.168;14.024;2023-08-07T00:10:42;1.80;;;1.70;;
38435;SDS011;24220;48.168;14.024;2023-08-07T00:13:09;1.90;;;1.80;;
38435;SDS011;24220;48.168;14.024;2023-08-07T00:15:39;1.95;;;1.67;;
38435;SDS011;24220;48.168;14.024;2023-08-07T00:18:07;1.80;;;1.70;;
38435;SDS011;24220;48.168;14.024;2023-08-07T00:20:34;2.17;;;1.88;;
38435;SDS011;24220;48.168;14.024;2023-08-07T00:23:04;2.45;;;1.60;;
38435;SDS011;24220;48.168;14.024;2023-08-07T00:25:31;2.35;;;1.80;;
38435;SDS011;24220;48.168;14.024;2023-08-07T00:27:58;2.00;;;1.80;;
38435;SDS011;24220;48.168;14.024;2023-08-07T00:30:30;2.28;;;1.75;;
38435;SDS011;24220;48.168;14.024;2023-08-07T00:32:58;1.55;;;1.45;;
38435;SDS011;24220;48.168;14.024;2023-08-07T00:35:27;2.22;;;1.70;;
38435;SDS011;24220;48.168;14.024;2023-08-07T00:37:57;1.52;;;1.42;;
38435;SDS011;24220;48.168;14.024;2023-08-07T00:40:25;1.80;;;1.70;;
38435;SDS011;24220;48.168;14.024;2023-08-07T00:42:55;2.55;;;1.90;;
38435;SDS011;24220;48.168;14.024;2023-08-07T00:45:24;1.88;;;1.60;;
38435;SDS011;24220;48.168;14.024;2023-08-07T00:47:51;2.67;;;1.63;;
38435;SDS011;24220;48.168;14.024;2023-08-07T00:50:21;1.70;;;1.50;;
38435;SDS011;24220;48.168;14.024;2023-08-07T00:52:54;2.47;;;1.65;;
38435;SDS011;24220;48.168;14.024;2023-08-07T00:55:22;1.70;;;1.60;;
38435;SDS011;24220;48.168;14.024;2023-08-07T00:57:49;1.75;;;1.65;;
38435;SDS011;24220;48.168;14.024;2023-08-07T01:00:17;1.90;;;1.80;;
38435;SDS011;24220;48.168;14.024;2023-08-07T01:02:45;2.58;;;2.13;;
38435;SDS011;24220;48.168;14.024;2023-08-07T01:05:15;2.15;;;1.98;;
38435;SDS011;24220;48.168;14.024;2023-08-07T01:07:43;1.65;;;1.55;;
38435;SDS011;24220;48.168;14.024;2023-08-07T01:10:12;1.48;;;1.45;;
38435;SDS011;24220;48.168;14.024;2023-08-07T01:12:45;2.60;;;1.70;;
38435;SDS011;24220;48.168;14.024;2023-08-07T01:15:22;2.95;;;1.60;;
38435;SDS011;24220;48.168;14.024;2023-08-07T01:17:57;2.13;;;1.80;;
38435;SDS011;24220;48.168;14.024;2023-08-07T01:20:26;2.00;;;1.90;;
38435;SDS011;24220;48.168;14.024;2023-08-07T01:22:53;1.85;;;1.70;;
38435;SDS011;24220;48.168;14.024;2023-08-07T01:25:22;1.92;;;1.70;;
38435;SDS011;24220;48.168;14.024;2023-08-07T01:28:00;2.42;;;1.83;;
38435;SDS011;24220;48.168;14.024;2023-08-07T01:30:36;3.25;;;2.97;;
38435;SDS011;24220;48.168;14.024;2023-08-07T01:35:35;2.20;;;1.70;;
38435;SDS011;24220;48.168;14.024;2023-08-07T01:38:07;2.42;;;1.90;;
38435;SDS011;24220;48.168;14.024;2023-08-07T01:40:39;1.85;;;1.73;;
38435;SDS011;24220;48.168;14.024;2023-08-07T01:43:08;2.15;;;1.95;;
38435;SDS011;24220;48.168;14.024;2023-08-07T01:45:35;2.00;;;1.80;;
38435;SDS011;24220;48.168;14.024;2023-08-07T01:48:05;1.77;;;1.67;;
38435;SDS011;24220;48.168;14.024;2023-08-07T01:50:33;1.85;;;1.75;;
38435;SDS011;24220;48.168;14.024;2023-08-07T01:53:03;1.90;;;1.80;;
38435;SDS011;24220;48.168;14.024;2023-08-07T01:55:31;2.00;;;1.90;;
38435;SDS011;24220;48.168;14.024;2023-08-07T01:58:04;2.00;;;1.80;;
38435;SDS011;24220;48.168;14.024;2023-08-07T02:00:31;1.80;;;1.70;;
38435;SDS011;24220;48.168;14.024;2023-08-07T02:02:58;2.20;;;2.00;;
38435;SDS011;24220;48.168;14.024;2023-08-07T02:05:26;2.00;;;1.90;;
38435;SDS011;24220;48.168;14.024;2023-08-07T02:07:53;2.00;;;1.90;;
38435;SDS011;24220;48.168;14.024;2023-08-07T02:10:23;2.80;;;1.90;;
38435;SDS011;24220;48.168;14.024;2023-08-07T02:12:50;2.10;;;1.90;;
38435;SDS011;24220;48.168;14.024;2023-08-07T02:15:18;2.00;;;1.85;;
38435;SDS011;24220;48.168;14.024;2023-08-07T02:17:45;2.05;;;1.90;;
38435;SDS011;24220;48.168;14.024;2023-08-07T02:20:13;2.58;;;1.90;;
38435;SDS011;24220;48.168;14.024;2023-08-07T02:22:40;2.10;;;1.90;;
38435;SDS011;24220;48.168;14.024;2023-08-07T02:25:07;1.80;;;1.80;;
38435;SDS011;24220;48.168;14.024;2023-08-07T02:27:38;2.45;;;2.25;;
38435;SDS011;24220;48.168;14.024;2023-08-07T02:30:05;2.00;;;1.90;;
38435;SDS011;24220;48.168;14.024;2023-08-07T02:32:33;2.20;;;2.00;;
38435;SDS011;24220;48.168;14.024;2023-08-07T02:35:01;5.47;;;2.03;;
38435;SDS011;24220;48.168;14.024;2023-08-07T02:37:29;2.13;;;2.03;;
38435;SDS011;24220;48.168;14.024;2023-08-07T02:39:56;2.72;;;2.20;;
38435;SDS011;24220;48.168;14.024;2023-08-07T02:42:23;2.22;;;2.03;;
38435;SDS011;24220;48.168;14.024;2023-08-07T02:44:51;1.95;;;1.85;;
38435;SDS011;24220;48.168;14.024;2023-08-07T02:47:18;2.30;;;2.20;;
38435;SDS011;24220;48.168;14.024;2023-08-07T02:49:45;1.90;;;1.80;;
38435;SDS011;24220;48.168;14.024;2023-08-07T02:52:12;2.20;;;2.10;;
38435;SDS011;24220;48.168;14.024;2023-08-07T02:54:40;2.20;;;2.00;;
38435;SDS011;24220;48.168;14.024;2023-08-07T02:57:09;2.00;;;1.90;;
38435;SDS011;24220;48.168;14.024;2023-08-07T02:59:37;2.97;;;2.15;;
38435;SDS011;24220;48.168;14.024;2023-08-07T03:02:06;2.20;;;2.10;;
38435;SDS011;24220;48.168;14.024;2023-08-07T03:04:34;2.20;;;2.10;;
38435;SDS011;24220;48.168;14.024;2023-08-07T03:07:04;2.15;;;2.00;;
38435;SDS011;24220;48.168;14.024;2023-08-07T03:09:32;2.95;;;2.55;;
38435;SDS011;24220;48.168;14.024;2023-08-07T03:12:03;3.00;;;2.25;;
38435;SDS011;24220;48.168;14.024;2023-08-07T03:14:31;3.72;;;2.15;;
38435;SDS011;24220;48.168;14.024;2023-08-07T03:16:58;4.18;;;3.97;;
38435;SDS011;24220;48.168;14.024;2023-08-07T03:19:26;2.17;;;2.08;;
38435;SDS011;24220;48.168;14.024;2023-08-07T03:21:53;2.00;;;1.90;;
38435;SDS011;24220;48.168;14.024;2023-08-07T03:24:20;2.22;;;1.85;;
38435;SDS011;24220;48.168;14.024;2023-08-07T03:26:48;2.42;;;2.05;;
38435;SDS011;24220;48.168;14.024;2023-08-07T03:29:18;2.53;;;2.33;;
38435;SDS011;24220;48.168;14.024;2023-08-07T03:31:47;2.00;;;1.90;;
38435;SDS011;24220;48.168;14.024;2023-08-07T03:34:15;2.00;;;1.90;;
38435;SDS011;24220;48.168;14.024;2023-08-07T03:36:42;1.85;;;1.75;;
38435;SDS011;24220;48.168;14.024;2023-08-07T03:39:14;2.20;;;2.00;;
38435;SDS011;24220;48.168;14.024;2023-08-07T03:41:42;2.20;;;2.10;;
38435;SDS011;24220;48.168;14.024;2023-08-07T03:44:11;2.10;;;2.00;;
38435;SDS011;24220;48.168;14.024;2023-08-07T03:46:41;2.08;;;1.90;;
38435;SDS011;24220;48.168;14.024;2023-08-07T03:49:11;4.00;;;3.88;;
38435;SDS011;24220;48.168;14.024;2023-08-07T03:51:40;2.40;;;2.30;;
38435;SDS011;24220;48.168;14.024;2023-08-07T03:54:08;2.25;;;2.13;;
38435;SDS011;24220;48.168;14.024;2023-08-07T03:56:35;2.47;;;2.30;;
38435;SDS011;24220;48.168;14.024;2023-08-07T03:59:05;2.40;;;2.30;;
38435;SDS011;24220;48.168;14.024;2023-08-07T04:01:35;5.82;;;5.63;;
38435;SDS011;24220;48.168;14.024;2023-08-07T04:04:02;3.03;;;2.28;;
38435;SDS011;24220;48.168;14.024;2023-08-07T04:06:32;2.28;;;2.17;;
38435;SDS011;24220;48.168;14.024;2023-08-07T04:08:59;4.78;;;2.47;;
38435;SDS011;24220;48.168;14.024;2023-08-07T04:11:30;2.40;;;2.30;;
38435;SDS011;24220;48.168;14.024;2023-08-07T04:13:57;2.60;;;2.50;;
38435;SDS011;24220;48.168;14.024;2023-08-07T04:16:27;2.17;;;2.08;;
38435;SDS011;24220;48.168;14.024;2023-08-07T04:18:54;2.83;;;2.15;;
38435;SDS011;24220;48.168;14.024;2023-08-07T04:21:22;2.38;;;2.28;;
38435;SDS011;24220;48.168;14.024;2023-08-07T04:23:49;2.50;;;2.40;;
38435;SDS011;24220;48.168;14.024;2023-08-07T04:26:17;2.35;;;2.25;;
38435;SDS011;24220;48.168;14.024;2023-08-07T04:28:44;2.22;;;2.13;;
38435;SDS011;24220;48.168;14.024;2023-08-07T04:31:11;2.80;;;2.60;;
38435;SDS011;24220;48.168;14.024;2023-08-07T04:33:39;2.33;;;2.22;;
38435;SDS011;24220;48.168;14.024;2023-08-07T04:36:06;2.15;;;2.05;;
38435;SDS011;24220;48.168;14.024;2023-08-07T04:38:34;2.25;;;2.15;;
38435;SDS011;24220;48.168;14.024;2023-08-07T04:41:01;2.30;;;2.20;;
38435;SDS011;24220;48.168;14.024;2023-08-07T04:43:30;2.50;;;2.40;;
38435;SDS011;24220;48.168;14.024;2023-08-07T04:45:57;2.45;;;2.35;;
38435;SDS011;24220;48.168;14.024;2023-08-07T04:48:24;2.88;;;2.50;;
38435;SDS011;24220;48.168;14.024;2023-08-07T04:50:52;2.60;;;2.50;;
38435;SDS011;24220;48.168;14.024;2023-08-07T04:53:19;2.83;;;2.72;;
38435;SDS011;24220;48.168;14.024;2023-08-07T04:55:49;2.72;;;2.60;;
38435;SDS011;24220;48.168;14.024;2023-08-07T04:58:16;2.70;;;2.60;;
38435;SDS011;24220;48.168;14.024;2023-08-07T05:00:53;2.78;;;2.58;;
38435;SDS011;24220;48.168;14.024;2023-08-07T05:03:28;2.80;;;2.60;;
38435;SDS011;24220;48.168;14.024;2023-08-07T05:05:58;2.50;;;2.40;;
38435;SDS011;24220;48.168;14.024;2023-08-07T05:08:28;2.63;;;2.47;;
38435;SDS011;24220;48.168;14.024;2023-08-07T05:10:57;2.85;;;2.67;;
38435;SDS011;24220;48.168;14.024;2023-08-07T05:13:27;2.63;;;2.53;;
38435;SDS011;24220;48.168;14.024;2023-08-07T05:15:57;2.50;;;2.40;;
38435;SDS011;24220;48.168;14.024;2023-08-07T05:18:29;2.83;;;2.63;;
38435;SDS011;24220;48.168;14.024;2023-08-07T05:20:56;2.97;;;2.70;;
38435;SDS011;24220;48.168;14.024;2023-08-07T05:23:26;3.30;;;3.00;;
38435;SDS011;24220;48.168;14.024;2023-08-07T05:25:58;3.30;;;3.05;;
38435;SDS011;24220;48.168;14.024;2023-08-07T05:28:25;3.13;;;2.83;;
38435;SDS011;24220;48.168;14.024;2023-08-07T05:30:52;2.72;;;2.63;;
38435;SDS011;24220;48.168;14.024;2023-08-07T05:33:20;3.08;;;2.80;;
38435;SDS011;24220;48.168;14.024;2023-08-07T05:35:50;2.88;;;2.70;;
38435;SDS011;24220;48.168;14.024;2023-08-07T05:38:21;3.05;;;2.85;;
38435;SDS011;24220;48.168;14.024;2023-08-07T05:40:51;3.17;;;2.85;;
38435;SDS011;24220;48.168;14.024;2023-08-07T05:43:20;3.00;;;2.80;;
38435;SDS011;24220;48.168;14.024;2023-08-07T05:45:48;3.20;;;3.00;;
38435;SDS011;24220;48.168;14.024;2023-08-07T05:48:15;3.20;;;3.00;;
38435;SDS011;24220;48.168;14.024;2023-08-07T05:50:43;3.10;;;2.90;;
38435;SDS011;24220;48.168;14.024;2023-08-07T05:53:10;3.10;;;2.90;;
38435;SDS011;24220;48.168;14.024;2023-08-07T05:55:40;3.50;;;3.00;;
38435;SDS011;24220;48.168;14.024;2023-08-07T05:58:12;2.92;;;2.70;;
38435;SDS011;24220;48.168;14.024;2023-08-07T06:00:42;4.85;;;4.55;;
38435;SDS011;24220;48.168;14.024;2023-08-07T06:03:09;4.25;;;3.95;;
38435;SDS011;24220;48.168;14.024;2023-08-07T06:05:39;3.10;;;2.53;;
38435;SDS011;24220;48.168;14.024;2023-08-07T06:08:07;2.80;;;2.70;;
38435;SDS011;24220;48.168;14.024;2023-08-07T06:10:34;2.80;;;2.60;;
38435;SDS011;24220;48.168;14.024;2023-08-07T06:13:01;2.80;;;2.70;;
38435;SDS011;24220;48.168;14.024;2023-08-07T06:15:32;2.80;;;2.60;;
38435;SDS011;24220;48.168;14.024;2023-08-07T06:18:00;2.83;;;2.63;;
38435;SDS011;24220;48.168;14.024;2023-08-07T06:20:29;2.70;;;2.60;;
38435;SDS011;24220;48.168;14.024;2023-08-07T06:22:57;2.90;;;2.70;;
38435;SDS011;24220;48.168;14.024;2023-08-07T06:25:24;2.75;;;2.65;;
38435;SDS011;24220;48.168;14.024;2023-08-07T06:27:53;2.70;;;2.50;;
38435;SDS011;24220;48.168;14.024;2023-08-07T06:30:21;3.05;;;2.85;;
38435;SDS011;24220;48.168;14.024;2023-08-07T06:32:48;2.70;;;2.50;;
38435;SDS011;24220;48.168;14.024;2023-08-07T06:35:16;2.58;;;2.40;;
38435;SDS011;24220;48.168;14.024;2023-08-07T06:37:43;2.53;;;2.42;;
38435;SDS011;24220;48.168;14.024;2023-08-07T06:40:11;2.70;;;2.50;;
38435;SDS011;24220;48.168;14.024;2023-08-07T06:42:38;3.58;;;2.80;;
38435;SDS011;24220;48.168;14.024;2023-08-07T06:45:06;2.53;;;2.40;;
38435;SDS011;24220;48.168;14.024;2023-08-07T06:47:34;2.45;;;2.35;;
38435;SDS011;24220;48.168;14.024;2023-08-07T06:50:01;4.68;;;2.53;;
38435;SDS011;24220;48.168;14.024;2023-08-07T06:52:29;2.40;;;2.20;;
38435;SDS011;24220;48.168;14.024;2023-08-07T06:54:58;2.88;;;2.70;;
38435;SDS011;24220;48.168;14.024;2023-08-07T06:57:26;2.97;;;2.60;;
38435;SDS011;24220;48.168;14.024;2023-08-07T06:59:53;4.85;;;2.60;;
38435;SDS011;24220;48.168;14.024;2023-08-07T07:02:20;2.63;;;2.42;;
38435;SDS011;24220;48.168;14.024;2023-08-07T07:04:50;3.15;;;2.67;;
38435;SDS011;24220;48.168;14.024;2023-08-07T07:07:17;2.60;;;2.40;;
38435;SDS011;24220;48.168;14.024;2023-08-07T07:09:47;2.83;;;2.40;;
38435;SDS011;24220;48.168;14.024;2023-08-07T07:12:14;2.63;;;2.42;;
38435;SDS011;24220;48.168;14.024;2023-08-07T07:14:41;2.83;;;2.50;;
38435;SDS011;24220;48.168;14.024;2023-08-07T07:17:11;2.95;;;2.58;;
38435;SDS011;24220;48.168;14.024;2023-08-07T07:19:38;3.10;;;2.80;;
38435;SDS011;24220;48.168;14.024;2023-08-07T07:22:06;2.80;;;2.50;;
38435;SDS011;24220;48.168;14.024;2023-08-07T07:24:33;3.45;;;2.80;;
38435;SDS011;24220;48.168;14.024;2023-08-07T07:27:00;3.08;;;2.78;;
38435;SDS011;24220;48.168;14.024;2023-08-07T07:29:28;2.88;;;2.67;;
38435;SDS011;24220;48.168;14.024;2023-08-07T07:31:55;2.53;;;2.42;;
38435;SDS011;24220;48.168;14.024;2023-08-07T07:34:25;2.63;;;2.50;;
38435;SDS011;24220;48.168;14.024;2023-08-07T07:36:53;2.95;;;2.65;;
38435;SDS011;24220;48.168;14.024;2023-08-07T07:39:20;2.75;;;2.55;;
38435;SDS011;24220;48.168;14.024;2023-08-07T07:41:50;2.80;;;2.60;;
38435;SDS011;24220;48.168;14.024;2023-08-07T07:44:18;3.65;;;3.08;;
38435;SDS011;24220;48.168;14.024;2023-08-07T07:46:45;2.97;;;2.78;;
38435;SDS011;24220;48.168;14.024;2023-08-07T07:49:12;3.28;;;2.97;;
38435;SDS011;24220;48.168;14.024;2023-08-07T07:51:39;2.78;;;2.55;;
38435;SDS011;24220;48.168;14.024;2023-08-07T07:54:11;3.03;;;2.83;;
38435;SDS011;24220;48.168;14.024;2023-08-07T07:56:44;3.45;;;2.85;;
38435;SDS011;24220;48.168;14.024;2023-08-07T07:59:11;2.85;;;2.70;;
38435;SDS011;24220;48.168;14.024;2023-08-07T08:01:40;3.50;;;3.30;;
38435;SDS011;24220;48.168;14.024;2023-08-07T08:04:07;3.13;;;2.92;;
38435;SDS011;24220;48.168;14.024;2023-08-07T08:06:37;3.80;;;2.67;;
38435;SDS011;24220;48.168;14.024;2023-08-07T08:09:05;3.03;;;2.83;;
38435;SDS011;24220;48.168;14.024;2023-08-07T08:11:35;3.00;;;2.80;;
38435;SDS011;24220;48.168;14.024;2023-08-07T08:14:03;2.78;;;2.67;;
38435;SDS011;24220;48.168;14.024;2023-08-07T08:16:33;2.90;;;2.65;;
38435;SDS011;24220;48.168;14.024;2023-08-07T08:19:00;2.83;;;2.63;;
38435;SDS011;24220;48.168;14.024;2023-08-07T08:21:28;3.33;;;2.92;;
38435;SDS011;24220;48.168;14.024;2023-08-07T08:23:58;2.95;;;2.75;;
38435;SDS011;24220;48.168;14.024;2023-08-07T08:26:25;3.20;;;3.00;;
38435;SDS011;24220;48.168;14.024;2023-08-07T08:28:53;3.30;;;2.95;;
38435;SDS011;24220;48.168;14.024;2023-08-07T08:31:20;3.13;;;2.90;;
38435;SDS011;24220;48.168;14.024;2023-08-07T08:33:48;3.13;;;2.92;;
38435;SDS011;24220;48.168;14.024;2023-08-07T08:36:19;3.10;;;2.90;;
38435;SDS011;24220;48.168;14.024;2023-08-07T08:38:46;4.88;;;3.00;;
38435;SDS011;24220;48.168;14.024;2023-08-07T08:41:15;3.08;;;2.88;;
38435;SDS011;24220;48.168;14.024;2023-08-07T08:43:43;3.30;;;3.00;;
38435;SDS011;24220;48.168;14.024;2023-08-07T08:46:16;3.15;;;2.95;;
38435;SDS011;24220;48.168;14.024;2023-08-07T08:48:49;5.05;;;2.80;;
38435;SDS011;24220;48.168;14.024;2023-08-07T08:51:19;2.90;;;2.70;;
38435;SDS011;24220;48.168;14.024;2023-08-07T08:53:48;3.22;;;3.03;;
38435;SDS011;24220;48.168;14.024;2023-08-07T08:56:20;3.50;;;3.20;;
38435;SDS011;24220;48.168;14.024;2023-08-07T08:58:52;3.50;;;3.20;;
38435;SDS011;24220;48.168;14.024;2023-08-07T09:01:21;3.40;;;3.10;;
38435;SDS011;24220;48.168;14.024;2023-08-07T09:03:53;4.40;;;3.08;;
38435;SDS011;24220;48.168;14.024;2023-08-07T09:06:22;4.15;;;3.20;;
38435;SDS011;24220;48.168;14.024;2023-08-07T09:08:51;3.40;;;3.10;;
38435;SDS011;24220;48.168;14.024;2023-08-07T09:11:23;3.50;;;3.20;;
38435;SDS011;24220;48.168;14.024;2023-08-07T09:13:51;3.33;;;3.03;;
38435;SDS011;24220;48.168;14.024;2023-08-07T09:16:24;3.17;;;2.90;;
38435;SDS011;24220;48.168;14.024;2023-08-07T09:18:53;3.30;;;3.00;;
38435;SDS011;24220;48.168;14.024;2023-08-07T09:21:22;4.13;;;3.20;;
38435;SDS011;24220;48.168;14.024;2023-08-07T09:23:49;4.35;;;3.33;;
38435;SDS011;24220;48.168;14.024;2023-08-07T09:26:21;3.58;;;3.28;;
38435;SDS011;24220;48.168;14.024;2023-08-07T09:28:51;3.30;;;3.10;;
38435;SDS011;24220;48.168;14.024;2023-08-07T09:31:22;3.40;;;3.10;;
38435;SDS011;24220;48.168;14.024;2023-08-07T09:33:53;4.00;;;3.63;;
38435;SDS011;24220;48.168;14.024;2023-08-07T09:36:20;3.95;;;3.63;;
38435;SDS011;24220;48.168;14.024;2023-08-07T09:38:50;3.88;;;3.55;;
38435;SDS011;24220;48.168;14.024;2023-08-07T09:41:18;5.65;;;3.50;;
38435;SDS011;24220;48.168;14.024;2023-08-07T09:43:48;3.90;;;3.60;;
38435;SDS011;24220;48.168;14.024;2023-08-07T09:46:15;3.80;;;3.50;;
38435;SDS011;24220;48.168;14.024;2023-08-07T09:48:47;3.70;;;3.40;;
38435;SDS011;24220;48.168;14.024;2023-08-07T09:51:14;5.32;;;3.38;;
38435;SDS011;24220;48.168;14.024;2023-08-07T09:53:42;3.28;;;3.08;;
38435;SDS011;24220;48.168;14.024;2023-08-07T09:56:09;3.85;;;3.00;;
38435;SDS011;24220;48.168;14.024;2023-08-07T09:58:38;3.85;;;3.20;;
38435;SDS011;24220;48.168;14.024;2023-08-07T10:01:15;3.45;;;3.17;;
38435;SDS011;24220;48.168;14.024;2023-08-07T10:03:46;3.40;;;3.10;;
38435;SDS011;24220;48.168;14.024;2023-08-07T10:06:15;3.50;;;3.20;;
38435;SDS011;24220;48.168;14.024;2023-08-07T10:08:43;3.55;;;3.22;;
38435;SDS011;24220;48.168;14.024;2023-08-07T10:11:11;3.22;;;3.03;;
38435;SDS011;24220;48.168;14.024;2023-08-07T10:13:43;4.50;;;3.95;;
38435;SDS011;24220;48.168;14.024;2023-08-07T10:16:11;3.65;;;3.28;;
38435;SDS011;24220;48.168;14.024;2023-08-07T10:18:42;3.30;;;3.00;;
38435;SDS011;24220;48.168;14.024;2023-08-07T10:21:09;3.60;;;3.30;;
38435;SDS011;24220;48.168;14.024;2023-08-07T10:23:38;3.45;;;3.15;;
38435;SDS011;24220;48.168;14.024;2023-08-07T10:26:07;3.40;;;3.20;;
38435;SDS011;24220;48.168;14.024;2023-08-07T10:28:37;3.63;;;3.33;;
38435;SDS011;24220;48.168;14.024;2023-08-07T10:31:07;3.72;;;3.10;;
38435;SDS011;24220;48.168;14.024;2023-08-07T10:33:37;3.28;;;3.08;;
38435;SDS011;24220;48.168;14.024;2023-08-07T10:36:08;3.55;;;3.25;;
38435;SDS011;24220;48.168;14.024;2023-08-07T10:38:37;4.50;;;3.10;;
38435;SDS011;24220;48.168;14.024;2023-08-07T10:43:42;3.42;;;3.22;;
38435;SDS011;24220;48.168;14.024;2023-08-07T10:46:19;4.10;;;3.13;;
38435;SDS011;24220;48.168;14.024;2023-08-07T10:48:54;3.40;;;3.00;;
38435;SDS011;24220;48.168;14.024;2023-08-07T10:51:29;3.20;;;2.90;;
38435;SDS011;24220;48.168;14.024;2023-08-07T10:54:01;3.50;;;3.20;;
38435;SDS011;24220;48.168;14.024;2023-08-07T10:56:30;4.72;;;3.05;;
38435;SDS011;24220;48.168;14.024;2023-08-07T10:59:10;4.03;;;3.05;;
38435;SDS011;24220;48.168;14.024;2023-08-07T11:04:13;4.18;;;3.30;;
38435;SDS011;24220;48.168;14.024;2023-08-07T11:06:42;3.42;;;3.13;;
38435;SDS011;24220;48.168;14.024;2023-08-07T11:09:13;3.63;;;3.33;;
38435;SDS011;24220;48.168;14.024;2023-08-07T11:11:41;3.35;;;3.05;;
38435;SDS011;24220;48.168;14.024;2023-08-07T11:14:16;3.00;;;2.80;;
38435;SDS011;24220;48.168;14.024;2023-08-07T11:16:47;3.25;;;3.05;;
38435;SDS011;24220;48.168;14.024;2023-08-07T11:19:17;3.03;;;2.83;;
38435;SDS011;24220;48.168;14.024;2023-08-07T11:21:46;3.53;;;3.00;;
38435;SDS011;24220;48.168;14.024;2023-08-07T11:24:15;3.20;;;3.00;;
38435;SDS011;24220;48.168;14.024;2023-08-07T11:26:45;3.33;;;2.95;;
38435;SDS011;24220;48.168;14.024;2023-08-07T11:29:17;4.07;;;2.90;;
38435;SDS011;24220;48.168;14.024;2023-08-07T11:31:45;3.08;;;2.88;;
38435;SDS011;24220;48.168;14.024;2023-08-07T11:34:19;3.20;;;2.90;;
38435;SDS011;24220;48.168;14.024;2023-08-07T11:36:47;3.20;;;2.90;;
38435;SDS011;24220;48.168;14.024;2023-08-07T11:39:15;3.13;;;2.83;;
38435;SDS011;24220;48.168;14.024;2023-08-07T11:41:43;5.65;;;2.90;;
38435;SDS011;24220;48.168;14.024;2023-08-07T11:44:12;5.68;;;3.10;;
38435;SDS011;24220;48.168;14.024;2023-08-07T11:46:39;2.92;;;2.72;;
38435;SDS011;24220;48.168;14.024;2023-08-07T11:49:07;3.15;;;2.95;;
38435;SDS011;24220;48.168;14.024;2023-08-07T11:51:38;3.15;;;2.90;;
38435;SDS011;24220;48.168;14.024;2023-08-07T11:54:14;3.00;;;2.72;;
38435;SDS011;24220;48.168;14.024;2023-08-07T11:56:42;3.35;;;2.75;;
38435;SDS011;24220;48.168;14.024;2023-08-07T11:59:12;3.50;;;2.70;;
38435;SDS011;24220;48.168;14.024;2023-08-07T12:01:43;4.32;;;2.90;;
38435;SDS011;24220;48.168;14.024;2023-08-07T12:04:16;2.95;;;2.72;;
38435;SDS011;24220;48.168;14.024;2023-08-07T12:09:22;3.33;;;3.10;;
38435;SDS011;24220;48.168;14.024;2023-08-07T12:11:56;3.97;;;2.72;;
38435;SDS011;24220;48.168;14.024;2023-08-07T12:14:28;2.92;;;2.70;;
38435;SDS011;24220;48.168;14.024;2023-08-07T12:16:56;3.03;;;2.80;;
38435;SDS011;24220;48.168;14.024;2023-08-07T12:19:26;3.40;;;2.95;;
38435;SDS011;24220;48.168;14.024;2023-08-07T12:22:05;3.65;;;2.95;;
38435;SDS011;24220;48.168;14.024;2023-08-07T12:24:37;3.38;;;2.90;;
38435;SDS011;24220;48.168;14.024;2023-08-07T12:27:04;3.10;;;2.80;;
38435;SDS011;24220;48.168;14.024;2023-08-07T12:29:32;3.00;;;2.70;;
38435;SDS011;24220;48.168;14.024;2023-08-07T12:31:59;3.00;;;2.70;;
38435;SDS011;24220;48.168;14.024;2023-08-07T12:34:29;2.70;;;2.50;;
38435;SDS011;24220;48.168;14.024;2023-08-07T12:36:59;3.03;;;2.83;;
38435;SDS011;24220;48.168;14.024;2023-08-07T12:39:26;3.88;;;2.85;;
38435;SDS011;24220;48.168;14.024;2023-08-07T12:41:57;3.13;;;2.83;;
38435;SDS011;24220;48.168;14.024;2023-08-07T12:44:27;2.92;;;2.75;;
38435;SDS011;24220;48.168;14.024;2023-08-07T12:46:55;3.67;;;2.80;;
38435;SDS011;24220;48.168;14.024;2023-08-07T12:49:23;3.92;;;2.80;;
38435;SDS011;24220;48.168;14.024;2023-08-07T12:51:53;3.15;;;2.85;;
38435;SDS011;24220;48.168;14.024;2023-08-07T12:54:24;5.07;;;2.92;;
38435;SDS011;24220;48.168;14.024;2023-08-07T12:56:54;3.00;;;2.80;;
38435;SDS011;24220;48.168;14.024;2023-08-07T12:59:22;3.08;;;2.75;;
38435;SDS011;24220;48.168;14.024;2023-08-07T13:01:49;5.00;;;3.30;;
38435;SDS011;24220;48.168;14.024;2023-08-07T13:04:17;3.20;;;3.00;;
38435;SDS011;24220;48.168;14.024;2023-08-07T13:06:45;2.90;;;2.70;;
38435;SDS011;24220;48.168;14.024;2023-08-07T13:09:16;2.92;;;2.70;;
38435;SDS011;24220;48.168;14.024;2023-08-07T13:11:43;3.20;;;2.90;;
38435;SDS011;24220;48.168;14.024;2023-08-07T13:14:13;5.15;;;3.10;;
38435;SDS011;24220;48.168;14.024;2023-08-07T13:16:43;3.30;;;3.00;;
38435;SDS011;24220;48.168;14.024;2023-08-07T13:19:10;2.78;;;2.58;;
38435;SDS011;24220;48.168;14.024;2023-08-07T13:21:38;2.85;;;2.65;;
38435;SDS011;24220;48.168;14.024;2023-08-07T13:24:07;5.03;;;3.22;;
38435;SDS011;24220;48.168;14.024;2023-08-07T13:26:35;3.22;;;2.90;;
38435;SDS011;24220;48.168;14.024;2023-08-07T13:29:03;2.90;;;2.70;;
38435;SDS011;24220;48.168;14.024;2023-08-07T13:31:33;2.95;;;2.75;;
38435;SDS011;24220;48.168;14.024;2023-08-07T13:34:00;3.03;;;2.58;;
38435;SDS011;24220;48.168;14.024;2023-08-07T13:36:27;2.85;;;2.65;;
38435;SDS011;24220;48.168;14.024;2023-08-07T13:38:57;2.90;;;2.70;;
38435;SDS011;24220;48.168;14.024;2023-08-07T13:41:27;3.10;;;2.80;;
38435;SDS011;24220;48.168;14.024;2023-08-07T13:44:00;3.05;;;2.75;;
38435;SDS011;24220;48.168;14.024;2023-08-07T13:46:28;2.90;;;2.50;;
38435;SDS011;24220;48.168;14.024;2023-08-07T13:48:55;2.97;;;2.67;;
38435;SDS011;24220;48.168;14.024;2023-08-07T13:51:25;3.33;;;3.08;;
38435;SDS011;24220;48.168;14.024;2023-08-07T13:53:52;2.70;;;2.50;;
38435;SDS011;24220;48.168;14.024;2023-08-07T13:56:20;3.10;;;2.80;;
38435;SDS011;24220;48.168;14.024;2023-08-07T13:58:47;2.70;;;2.50;;
38435;SDS011;24220;48.168;14.024;2023-08-07T14:01:15;3.60;;;2.35;;
38435;SDS011;24220;48.168;14.024;2023-08-07T14:03:42;2.17;;;2.08;;
38435;SDS011;24220;48.168;14.024;2023-08-07T14:06:10;2.60;;;2.40;;
38435;SDS011;24220;48.168;14.024;2023-08-07T14:08:37;2.63;;;2.42;;
38435;SDS011;24220;48.168;14.024;2023-08-07T14:11:04;3.35;;;2.53;;
38435;SDS011;24220;48.168;14.024;2023-08-07T14:13:33;2.75;;;2.55;;
38435;SDS011;24220;48.168;14.024;2023-08-07T14:16:02;3.15;;;2.63;;
38435;SDS011;24220;48.168;14.024;2023-08-07T14:18:30;2.80;;;2.50;;
38435;SDS011;24220;48.168;14.024;2023-08-07T14:20:57;2.30;;;2.20;;
38435;SDS011;24220;48.168;14.024;2023-08-07T14:23:45;3.95;;;2.78;;
38435;SDS011;24220;48.168;14.024;2023-08-07T14:26:13;3.00;;;2.75;;
38435;SDS011;24220;48.168;14.024;2023-08-07T14:28:41;3.00;;;2.80;;
38435;SDS011;24220;48.168;14.024;2023-08-07T14:31:09;2.75;;;2.55;;
38435;SDS011;24220;48.168;14.024;2023-08-07T14:33:38;2.50;;;2.30;;
38435;SDS011;24220;48.168;14.024;2023-08-07T14:36:08;2.97;;;2.30;;
38435;SDS011;24220;48.168;14.024;2023-08-07T14:38:36;3.78;;;2.67;;
38435;SDS011;24220;48.168;14.024;2023-08-07T14:41:03;2.55;;;2.35;;
38435;SDS011;24220;48.168;14.024;2023-08-07T14:43:30;2.55;;;2.35;;
38435;SDS011;24220;48.168;14.024;2023-08-07T14:45:58;2.42;;;2.30;;
38435;SDS011;24220;48.168;14.024;2023-08-07T14:48:26;2.63;;;2.42;;
38435;SDS011;24220;48.168;14.024;2023-08-07T14:50:53;3.78;;;2.67;;
38435;SDS011;24220;48.168;14.024;2023-08-07T14:53:22;3.33;;;2.70;;